powered by Meteolive.it
Dati meteo   Attuali  Passati Ogni 3 ore 7 Giorni 15 Giorni Avvisi Meteo Mappe meteo
Palermo / Punta Raisi, Italy
Alba: 6:02 AM UTC1
Tramonto: 6:23 PM UTC1
 Lat: 38.17N, Lon: 13.08E
ICAO Usato: LICJ
Condizioni Meteo Attuali Aggiornate: 25.03.2017 alle 23:20 LT
Parz Nuvoloso
Parz Nuvoloso
Parz Nuvoloso
N/D
Temp: 16°C
Umidita': 88%
Direz/Vel. Vento: SSW 03 KTS
Pressione: 1022 hPa
Punto di rugiada: 14°C
Temperatura percepita: 16°C
Visibilitą: 9000 m. (buona)
Temperatura percepita in
presenza di vento (Wind Chill)
:
16°C
T. max (ultime 24 ore): 18°C
T. min (ultime 24 ore): 12°C


METAR ORIGINALE
LICJ 252120Z 24003KT 9000 FEW010 SCT040 16/14 Q1022